Aeroporto :







RITROVATECI SU...

 
LOGIN :

Iscrizione | Disclaimer

   EN    FR    IT 

 









Sommario :    VFR   VFR Marginale   IFR   IFR Intensivo   IFR Molto Intensivo
Visibilità : 
Base nubi : 
>= 8 km
>= 3000ft
5 / 8 km
1000 / 3000 ft
1500m / 5 km
500 / 1000 ft
800 / 1500m
200 / 500 ft
< 800m
< 200 ft
Simboli :   Temporali  Nebbia  Neve Forte  Precipitazioni Forti  Vento > 20 kt






- Altitudine del aeroporto : 133 ft
- Codice IATA : BED


KBED - Laurence G Hanscom Field

ULTIMO METAR :
  • 100251Z 27010G16KT 10SM CLR 06/M01 A2917 RMK AO2 SLP892 60000 T00561011 51024

METARs OBSOLETI :
  • 100151Z 28009KT 10SM SCT070 OVC100 06/01 A2916 RMK AO2 RAE0054 SLP889 P0000 T00610006
  • 100051Z 29016G23KT 10SM -RA SCT060 OVC080 07/01 A2914 RMK AO2 PK WND 30029/0027 RAB42 SLP881 P0000 T00670011

TAF KBED
Valido dal 10 a 00 ore il 11 a 00 ore UTC


092326Z 1000/1024 27017G35KT P6SM BKN025
FM100100 27020G40KT P6SM SCT025 BKN050
FM100300 27015G36KT P6SM FEW050
FM100800 25012G21KT P6SM SKC
FM101500 28018G30KT P6SM VCSH BKN045
FM102100 31017G29KT P6SM BKN040



MetMap, La meteo Aeronautica in un colpo d'occhio ! - Copyright ORBIFLY Dicembre 2007 - Disclaimer

ORBIFLY MET'MAP TEAM :

Programmazione e sviluppo : Alexandra Zaïnal
Concezione : Baudouin d'Aumeries
Aiuto per la programmazione : Marc-Olivier Méhu
Supporto tecnico e logistico : Manuel Goepfert
Aiuto per la traduzione : Arnaldo La Scala

Contatto : metmap@orbifly.com




FONTI E CREDITI :

   NOAA